sensor_id;sensor_type;location;lat;lon;timestamp;temperature;humidity
23721;DHT22;42950;52.134;5.578;2023-01-28T00:02:00;3.40;99.90
23721;DHT22;42950;52.134;5.578;2023-01-28T00:04:25;3.40;99.90
23721;DHT22;42950;52.134;5.578;2023-01-28T00:06:51;3.40;99.90
23721;DHT22;42950;52.134;5.578;2023-01-28T00:09:18;3.50;99.90
23721;DHT22;42950;52.134;5.578;2023-01-28T00:11:43;3.50;99.90
23721;DHT22;42950;52.134;5.578;2023-01-28T00:14:10;3.50;99.90
23721;DHT22;42950;52.134;5.578;2023-01-28T00:16:36;3.50;99.90
23721;DHT22;42950;52.134;5.578;2023-01-28T00:19:02;3.50;99.90
23721;DHT22;42950;52.134;5.578;2023-01-28T00:21:28;3.60;99.90
23721;DHT22;42950;52.134;5.578;2023-01-28T00:23:54;3.50;99.90
23721;DHT22;42950;52.134;5.578;2023-01-28T00:26:21;3.50;99.90
23721;DHT22;42950;52.134;5.578;2023-01-28T00:28:47;3.50;99.90
23721;DHT22;42950;52.134;5.578;2023-01-28T00:31:22;3.60;99.90
23721;DHT22;42950;52.134;5.578;2023-01-28T00:33:49;3.60;99.90
23721;DHT22;42950;52.134;5.578;2023-01-28T00:36:18;3.60;99.90
23721;DHT22;42950;52.134;5.578;2023-01-28T00:38:52;3.70;99.90
23721;DHT22;42950;52.134;5.578;2023-01-28T00:41:20;3.70;99.90
23721;DHT22;42950;52.134;5.578;2023-01-28T00:43:47;3.70;99.90
23721;DHT22;42950;52.134;5.578;2023-01-28T00:46:13;3.70;99.90
23721;DHT22;42950;52.134;5.578;2023-01-28T00:48:40;3.70;99.90
23721;DHT22;42950;52.134;5.578;2023-01-28T00:51:06;3.70;99.90
23721;DHT22;42950;52.134;5.578;2023-01-28T00:53:32;3.80;99.90
23721;DHT22;42950;52.134;5.578;2023-01-28T00:56:00;3.80;99.90
23721;DHT22;42950;52.134;5.578;2023-01-28T00:58:26;3.80;99.90
23721;DHT22;42950;52.134;5.578;2023-01-28T01:00:51;3.90;99.90
23721;DHT22;42950;52.134;5.578;2023-01-28T01:03:18;3.90;99.90
23721;DHT22;42950;52.134;5.578;2023-01-28T01:05:43;3.80;99.90
23721;DHT22;42950;52.134;5.578;2023-01-28T01:08:09;3.90;99.90
23721;DHT22;42950;52.134;5.578;2023-01-28T01:10:36;3.90;99.90
23721;DHT22;42950;52.134;5.578;2023-01-28T01:13:02;3.80;99.90
23721;DHT22;42950;52.134;5.578;2023-01-28T01:15:28;3.80;99.90
23721;DHT22;42950;52.134;5.578;2023-01-28T01:17:53;3.80;99.90
23721;DHT22;42950;52.134;5.578;2023-01-28T01:20:22;3.80;99.90
23721;DHT22;42950;52.134;5.578;2023-01-28T01:22:48;3.80;99.90
23721;DHT22;42950;52.134;5.578;2023-01-28T01:25:15;3.80;99.90
23721;DHT22;42950;52.134;5.578;2023-01-28T01:27:41;3.80;99.90
23721;DHT22;42950;52.134;5.578;2023-01-28T01:30:08;3.80;99.90
23721;DHT22;42950;52.134;5.578;2023-01-28T01:32:34;3.80;99.90
23721;DHT22;42950;52.134;5.578;2023-01-28T01:35:00;3.80;99.90
23721;DHT22;42950;52.134;5.578;2023-01-28T01:37:26;3.80;99.90
23721;DHT22;42950;52.134;5.578;2023-01-28T01:39:52;3.80;99.90
23721;DHT22;42950;52.134;5.578;2023-01-28T01:42:17;3.90;99.90
23721;DHT22;42950;52.134;5.578;2023-01-28T01:45:06;3.80;99.90
23721;DHT22;42950;52.134;5.578;2023-01-28T01:47:46;3.80;99.90
23721;DHT22;42950;52.134;5.578;2023-01-28T01:50:34;3.80;99.90
23721;DHT22;42950;52.134;5.578;2023-01-28T01:53:08;3.80;99.90
23721;DHT22;42950;52.134;5.578;2023-01-28T01:55:38;3.80;99.90
23721;DHT22;42950;52.134;5.578;2023-01-28T01:58:11;3.80;99.90
23721;DHT22;42950;52.134;5.578;2023-01-28T02:00:39;3.80;99.90
23721;DHT22;42950;52.134;5.578;2023-01-28T02:03:06;3.90;99.90
23721;DHT22;42950;52.134;5.578;2023-01-28T02:05:32;3.90;99.90
23721;DHT22;42950;52.134;5.578;2023-01-28T02:07:58;3.90;99.90
23721;DHT22;42950;52.134;5.578;2023-01-28T02:10:44;3.80;99.90
23721;DHT22;42950;52.134;5.578;2023-01-28T02:13:10;3.80;99.90
23721;DHT22;42950;52.134;5.578;2023-01-28T02:15:36;3.80;99.90
23721;DHT22;42950;52.134;5.578;2023-01-28T02:18:02;3.80;99.90
23721;DHT22;42950;52.134;5.578;2023-01-28T02:20:36;3.70;99.90
23721;DHT22;42950;52.134;5.578;2023-01-28T02:26:08;3.70;99.90
23721;DHT22;42950;52.134;5.578;2023-01-28T02:31:19;3.60;99.90
23721;DHT22;42950;52.134;5.578;2023-01-28T02:38:49;3.60;99.90
23721;DHT22;42950;52.134;5.578;2023-01-28T02:41:22;3.50;99.90
23721;DHT22;42950;52.134;5.578;2023-01-28T02:43:49;3.50;99.90
23721;DHT22;42950;52.134;5.578;2023-01-28T02:49:15;3.50;99.90
23721;DHT22;42950;52.134;5.578;2023-01-28T02:51:57;3.50;99.90
23721;DHT22;42950;52.134;5.578;2023-01-28T02:54:44;3.50;99.90
23721;DHT22;42950;52.134;5.578;2023-01-28T03:00:00;3.40;99.90
23721;DHT22;42950;52.134;5.578;2023-01-28T03:05:14;3.30;99.90
23721;DHT22;42950;52.134;5.578;2023-01-28T03:07:43;3.40;99.90
23721;DHT22;42950;52.134;5.578;2023-01-28T03:10:12;3.40;99.90
23721;DHT22;42950;52.134;5.578;2023-01-28T03:12:42;3.30;99.90
23721;DHT22;42950;52.134;5.578;2023-01-28T03:15:32;3.30;99.90
23721;DHT22;42950;52.134;5.578;2023-01-28T03:18:21;3.40;99.90
23721;DHT22;42950;52.134;5.578;2023-01-28T03:21:23;3.40;99.90
23721;DHT22;42950;52.134;5.578;2023-01-28T03:27:24;3.40;99.90
23721;DHT22;42950;52.134;5.578;2023-01-28T03:30:18;3.30;99.90
23721;DHT22;42950;52.134;5.578;2023-01-28T03:33:04;3.30;99.90
23721;DHT22;42950;52.134;5.578;2023-01-28T03:35:49;3.30;99.90
23721;DHT22;42950;52.134;5.578;2023-01-28T03:38:33;3.30;99.90
23721;DHT22;42950;52.134;5.578;2023-01-28T03:41:08;3.20;99.90
23721;DHT22;42950;52.134;5.578;2023-01-28T03:43:34;3.20;99.90
23721;DHT22;42950;52.134;5.578;2023-01-28T03:46:01;3.20;99.90
23721;DHT22;42950;52.134;5.578;2023-01-28T03:48:27;3.20;99.90
23721;DHT22;42950;52.134;5.578;2023-01-28T03:50:56;3.10;99.90
23721;DHT22;42950;52.134;5.578;2023-01-28T03:53:22;3.20;99.90
23721;DHT22;42950;52.134;5.578;2023-01-28T03:55:49;3.20;99.90
23721;DHT22;42950;52.134;5.578;2023-01-28T03:58:15;3.20;99.90
23721;DHT22;42950;52.134;5.578;2023-01-28T04:00:42;3.20;99.90
23721;DHT22;42950;52.134;5.578;2023-01-28T04:03:16;3.20;99.90
23721;DHT22;42950;52.134;5.578;2023-01-28T04:05:43;3.10;99.90
23721;DHT22;42950;52.134;5.578;2023-01-28T04:08:09;3.20;99.90
23721;DHT22;42950;52.134;5.578;2023-01-28T04:10:37;3.20;99.90
23721;DHT22;42950;52.134;5.578;2023-01-28T04:13:03;3.20;99.90
23721;DHT22;42950;52.134;5.578;2023-01-28T04:15:29;3.10;99.90
23721;DHT22;42950;52.134;5.578;2023-01-28T04:17:55;3.10;99.90
23721;DHT22;42950;52.134;5.578;2023-01-28T04:20:21;3.10;99.90
23721;DHT22;42950;52.134;5.578;2023-01-28T04:22:46;3.10;99.90
23721;DHT22;42950;52.134;5.578;2023-01-28T04:25:12;3.20;99.90
23721;DHT22;42950;52.134;5.578;2023-01-28T04:27:37;3.10;99.90
23721;DHT22;42950;52.134;5.578;2023-01-28T04:30:03;3.00;99.90
23721;DHT22;42950;52.134;5.578;2023-01-28T04:32:29;3.00;99.90
23721;DHT22;42950;52.134;5.578;2023-01-28T04:34:54;3.00;99.90
23721;DHT22;42950;52.134;5.578;2023-01-28T04:37:20;3.00;99.90
23721;DHT22;42950;52.134;5.578;2023-01-28T04:39:45;3.00;99.90
23721;DHT22;42950;52.134;5.578;2023-01-28T04:42:11;3.00;99.90
23721;DHT22;42950;52.134;5.578;2023-01-28T04:44:36;3.10;99.90
23721;DHT22;42950;52.134;5.578;2023-01-28T04:47:02;3.10;99.90
23721;DHT22;42950;52.134;5.578;2023-01-28T04:49:27;3.10;99.90
23721;DHT22;42950;52.134;5.578;2023-01-28T04:51:53;3.10;99.90
23721;DHT22;42950;52.134;5.578;2023-01-28T04:54:18;3.00;99.90
23721;DHT22;42950;52.134;5.578;2023-01-28T04:56:44;3.10;99.90
23721;DHT22;42950;52.134;5.578;2023-01-28T04:59:09;3.10;99.90
23721;DHT22;42950;52.134;5.578;2023-01-28T05:01:35;3.10;99.90
23721;DHT22;42950;52.134;5.578;2023-01-28T05:04:00;3.20;99.90
23721;DHT22;42950;52.134;5.578;2023-01-28T05:06:33;3.10;99.90
23721;DHT22;42950;52.134;5.578;2023-01-28T05:08:58;3.10;99.90
23721;DHT22;42950;52.134;5.578;2023-01-28T05:11:24;3.00;99.90
23721;DHT22;42950;52.134;5.578;2023-01-28T05:13:50;3.00;99.90
23721;DHT22;42950;52.134;5.578;2023-01-28T05:16:15;3.00;99.90
23721;DHT22;42950;52.134;5.578;2023-01-28T05:18:41;3.00;99.90
23721;DHT22;42950;52.134;5.578;2023-01-28T05:21:07;3.10;99.90
23721;DHT22;42950;52.134;5.578;2023-01-28T05:23:33;3.10;99.90
23721;DHT22;42950;52.134;5.578;2023-01-28T05:25:58;3.00;99.90
23721;DHT22;42950;52.134;5.578;2023-01-28T05:28:24;3.10;99.90
23721;DHT22;42950;52.134;5.578;2023-01-28T05:30:49;3.20;99.90
23721;DHT22;42950;52.134;5.578;2023-01-28T05:33:15;3.20;99.90
23721;DHT22;42950;52.134;5.578;2023-01-28T05:35:41;3.10;99.90
23721;DHT22;42950;52.134;5.578;2023-01-28T05:38:07;3.00;99.90
23721;DHT22;42950;52.134;5.578;2023-01-28T05:40:33;3.00;99.90
23721;DHT22;42950;52.134;5.578;2023-01-28T05:42:59;3.00;99.90
23721;DHT22;42950;52.134;5.578;2023-01-28T05:45:24;3.00;99.90
23721;DHT22;42950;52.134;5.578;2023-01-28T05:47:50;3.00;99.90
23721;DHT22;42950;52.134;5.578;2023-01-28T05:50:16;3.00;99.90
23721;DHT22;42950;52.134;5.578;2023-01-28T05:52:42;3.00;99.90
23721;DHT22;42950;52.134;5.578;2023-01-28T05:55:08;2.90;99.90
23721;DHT22;42950;52.134;5.578;2023-01-28T05:57:34;2.80;99.90
23721;DHT22;42950;52.134;5.578;2023-01-28T05:59:59;2.80;99.90
23721;DHT22;42950;52.134;5.578;2023-01-28T06:02:25;2.90;99.90
23721;DHT22;42950;52.134;5.578;2023-01-28T06:04:50;2.80;99.90
23721;DHT22;42950;52.134;5.578;2023-01-28T06:07:16;2.70;99.90
23721;DHT22;42950;52.134;5.578;2023-01-28T06:09:45;2.80;99.90
23721;DHT22;42950;52.134;5.578;2023-01-28T06:12:11;2.70;99.90
23721;DHT22;42950;52.134;5.578;2023-01-28T06:14:36;2.70;99.90
23721;DHT22;42950;52.134;5.578;2023-01-28T06:17:02;2.80;99.90
23721;DHT22;42950;52.134;5.578;2023-01-28T06:19:27;2.90;99.90
23721;DHT22;42950;52.134;5.578;2023-01-28T06:21:53;2.90;99.90
23721;DHT22;42950;52.134;5.578;2023-01-28T06:24:18;3.00;99.90
23721;DHT22;42950;52.134;5.578;2023-01-28T06:26:44;3.00;99.90
23721;DHT22;42950;52.134;5.578;2023-01-28T06:29:09;3.00;99.90
23721;DHT22;42950;52.134;5.578;2023-01-28T06:31:35;2.90;99.90
23721;DHT22;42950;52.134;5.578;2023-01-28T06:34:01;2.90;99.90
23721;DHT22;42950;52.134;5.578;2023-01-28T06:36:26;2.80;99.90
23721;DHT22;42950;52.134;5.578;2023-01-28T06:38:52;2.80;99.90
23721;DHT22;42950;52.134;5.578;2023-01-28T06:41:17;2.70;99.90
23721;DHT22;42950;52.134;5.578;2023-01-28T06:43:43;2.70;99.90
23721;DHT22;42950;52.134;5.578;2023-01-28T06:46:08;2.80;99.90
23721;DHT22;42950;52.134;5.578;2023-01-28T06:48:34;2.80;99.90
23721;DHT22;42950;52.134;5.578;2023-01-28T06:50:59;2.80;99.90
23721;DHT22;42950;52.134;5.578;2023-01-28T06:53:25;2.70;99.90
23721;DHT22;42950;52.134;5.578;2023-01-28T06:55:50;2.70;99.90
23721;DHT22;42950;52.134;5.578;2023-01-28T06:58:16;2.60;99.90
23721;DHT22;42950;52.134;5.578;2023-01-28T07:00:42;2.60;99.90
23721;DHT22;42950;52.134;5.578;2023-01-28T07:03:07;2.60;99.90
23721;DHT22;42950;52.134;5.578;2023-01-28T07:05:33;2.50;99.90
23721;DHT22;42950;52.134;5.578;2023-01-28T07:07:58;2.40;99.90
23721;DHT22;42950;52.134;5.578;2023-01-28T07:10:26;2.40;99.90
23721;DHT22;42950;52.134;5.578;2023-01-28T07:12:52;2.40;99.90
23721;DHT22;42950;52.134;5.578;2023-01-28T07:15:17;2.40;99.90
23721;DHT22;42950;52.134;5.578;2023-01-28T07:17:43;2.50;99.90
23721;DHT22;42950;52.134;5.578;2023-01-28T07:20:11;2.60;99.90
23721;DHT22;42950;52.134;5.578;2023-01-28T07:22:40;2.60;99.90
23721;DHT22;42950;52.134;5.578;2023-01-28T07:25:07;2.50;99.90
23721;DHT22;42950;52.134;5.578;2023-01-28T07:27:32;2.70;99.90
23721;DHT22;42950;52.134;5.578;2023-01-28T07:29:58;2.70;99.90
23721;DHT22;42950;52.134;5.578;2023-01-28T07:32:23;2.70;99.90
23721;DHT22;42950;52.134;5.578;2023-01-28T07:34:52;2.60;99.90
23721;DHT22;42950;52.134;5.578;2023-01-28T07:37:17;2.60;99.90
23721;DHT22;42950;52.134;5.578;2023-01-28T07:39:43;2.60;99.90
23721;DHT22;42950;52.134;5.578;2023-01-28T07:42:08;2.60;99.90
23721;DHT22;42950;52.134;5.578;2023-01-28T07:44:34;2.60;99.90
23721;DHT22;42950;52.134;5.578;2023-01-28T07:47:01;2.60;99.90
23721;DHT22;42950;52.134;5.578;2023-01-28T07:49:27;2.50;99.90
23721;DHT22;42950;52.134;5.578;2023-01-28T07:51:52;2.40;99.90
23721;DHT22;42950;52.134;5.578;2023-01-28T07:54:18;2.40;99.90
23721;DHT22;42950;52.134;5.578;2023-01-28T07:56:43;2.50;99.90
23721;DHT22;42950;52.134;5.578;2023-01-28T07:59:09;2.50;99.90
23721;DHT22;42950;52.134;5.578;2023-01-28T08:01:34;2.50;99.90
23721;DHT22;42950;52.134;5.578;2023-01-28T08:04:00;2.50;99.90
23721;DHT22;42950;52.134;5.578;2023-01-28T08:06:27;2.50;99.90
23721;DHT22;42950;52.134;5.578;2023-01-28T08:08:53;2.40;99.90
23721;DHT22;42950;52.134;5.578;2023-01-28T08:11:18;2.40;99.90
23721;DHT22;42950;52.134;5.578;2023-01-28T08:13:45;2.40;99.90
23721;DHT22;42950;52.134;5.578;2023-01-28T08:16:10;2.50;99.90
23721;DHT22;42950;52.134;5.578;2023-01-28T08:18:36;2.50;99.90
23721;DHT22;42950;52.134;5.578;2023-01-28T08:21:01;2.50;99.90
23721;DHT22;42950;52.134;5.578;2023-01-28T08:23:29;2.50;99.90
23721;DHT22;42950;52.134;5.578;2023-01-28T08:25:57;2.60;99.90
23721;DHT22;42950;52.134;5.578;2023-01-28T08:28:23;2.70;99.90
23721;DHT22;42950;52.134;5.578;2023-01-28T08:30:49;2.70;99.90
23721;DHT22;42950;52.134;5.578;2023-01-28T08:33:16;2.70;99.90
23721;DHT22;42950;52.134;5.578;2023-01-28T08:35:42;2.80;99.90
23721;DHT22;42950;52.134;5.578;2023-01-28T08:38:09;2.90;99.90
23721;DHT22;42950;52.134;5.578;2023-01-28T08:40:35;2.90;99.90
23721;DHT22;42950;52.134;5.578;2023-01-28T08:43:01;3.00;99.90
23721;DHT22;42950;52.134;5.578;2023-01-28T08:45:27;3.00;99.90
23721;DHT22;42950;52.134;5.578;2023-01-28T08:48:01;3.10;99.90
23721;DHT22;42950;52.134;5.578;2023-01-28T08:50:30;3.10;99.90
23721;DHT22;42950;52.134;5.578;2023-01-28T08:53:01;3.20;99.90
23721;DHT22;42950;52.134;5.578;2023-01-28T08:55:27;3.20;99.90
23721;DHT22;42950;52.134;5.578;2023-01-28T08:57:53;3.20;99.90
23721;DHT22;42950;52.134;5.578;2023-01-28T09:00:20;3.10;99.90
23721;DHT22;42950;52.134;5.578;2023-01-28T09:02:46;3.00;99.90
23721;DHT22;42950;52.134;5.578;2023-01-28T09:05:11;3.10;99.90
23721;DHT22;42950;52.134;5.578;2023-01-28T09:07:38;3.20;99.90
23721;DHT22;42950;52.134;5.578;2023-01-28T09:10:04;3.20;99.90
23721;DHT22;42950;52.134;5.578;2023-01-28T09:12:30;3.10;99.90
23721;DHT22;42950;52.134;5.578;2023-01-28T09:14:56;3.30;99.90
23721;DHT22;42950;52.134;5.578;2023-01-28T09:17:22;3.30;99.90
23721;DHT22;42950;52.134;5.578;2023-01-28T09:19:48;3.40;99.90
23721;DHT22;42950;52.134;5.578;2023-01-28T09:22:13;3.40;99.90
23721;DHT22;42950;52.134;5.578;2023-01-28T09:24:39;3.50;99.90
23721;DHT22;42950;52.134;5.578;2023-01-28T09:27:05;3.60;99.90
23721;DHT22;42950;52.134;5.578;2023-01-28T09:29:33;3.60;99.90
23721;DHT22;42950;52.134;5.578;2023-01-28T09:31:58;3.70;99.90
23721;DHT22;42950;52.134;5.578;2023-01-28T09:34:24;3.70;99.90
23721;DHT22;42950;52.134;5.578;2023-01-28T09:36:49;3.70;99.90
23721;DHT22;42950;52.134;5.578;2023-01-28T09:39:15;3.70;99.90
23721;DHT22;42950;52.134;5.578;2023-01-28T09:47:04;3.90;99.90
23721;DHT22;42950;52.134;5.578;2023-01-28T09:49:37;3.90;99.90
23721;DHT22;42950;52.134;5.578;2023-01-28T09:52:12;3.90;99.90
23721;DHT22;42950;52.134;5.578;2023-01-28T09:54:45;3.90;99.90
23721;DHT22;42950;52.134;5.578;2023-01-28T09:57:24;3.90;99.90
23721;DHT22;42950;52.134;5.578;2023-01-28T09:59:50;3.90;99.90
23721;DHT22;42950;52.134;5.578;2023-01-28T10:02:36;4.00;99.90
23721;DHT22;42950;52.134;5.578;2023-01-28T10:10:21;4.00;99.90
23721;DHT22;42950;52.134;5.578;2023-01-28T10:15:47;4.10;99.90
23721;DHT22;42950;52.134;5.578;2023-01-28T10:18:13;4.00;99.90
23721;DHT22;42950;52.134;5.578;2023-01-28T10:20:51;4.10;99.90
23721;DHT22;42950;52.134;5.578;2023-01-28T10:23:21;3.90;99.90
23721;DHT22;42950;52.134;5.578;2023-01-28T10:25:48;3.90;99.90
23721;DHT22;42950;52.134;5.578;2023-01-28T10:28:26;3.90;99.90
23721;DHT22;42950;52.134;5.578;2023-01-28T10:30:52;4.00;99.90
23721;DHT22;42950;52.134;5.578;2023-01-28T10:35:54;4.20;99.90
23721;DHT22;42950;52.134;5.578;2023-01-28T10:38:22;4.20;99.90
23721;DHT22;42950;52.134;5.578;2023-01-28T10:40:49;4.20;99.90
23721;DHT22;42950;52.134;5.578;2023-01-28T10:43:24;4.30;99.90
23721;DHT22;42950;52.134;5.578;2023-01-28T10:46:03;4.50;99.90
23721;DHT22;42950;52.134;5.578;2023-01-28T10:48:32;4.50;99.90
23721;DHT22;42950;52.134;5.578;2023-01-28T10:51:00;4.40;99.90
23721;DHT22;42950;52.134;5.578;2023-01-28T10:55:59;4.40;99.90
23721;DHT22;42950;52.134;5.578;2023-01-28T10:58:28;4.50;99.90
23721;DHT22;42950;52.134;5.578;2023-01-28T11:01:04;4.50;99.90
23721;DHT22;42950;52.134;5.578;2023-01-28T11:03:30;4.50;99.90
23721;DHT22;42950;52.134;5.578;2023-01-28T11:05:57;4.70;99.90
23721;DHT22;42950;52.134;5.578;2023-01-28T11:08:27;4.80;99.90
23721;DHT22;42950;52.134;5.578;2023-01-28T11:10:54;4.90;99.90
23721;DHT22;42950;52.134;5.578;2023-01-28T11:15:48;5.10;99.90
23721;DHT22;42950;52.134;5.578;2023-01-28T11:18:26;5.10;99.90
23721;DHT22;42950;52.134;5.578;2023-01-28T11:20:59;5.20;99.90
23721;DHT22;42950;52.134;5.578;2023-01-28T11:23:31;5.40;99.90
23721;DHT22;42950;52.134;5.578;2023-01-28T11:26:02;5.50;99.90
23721;DHT22;42950;52.134;5.578;2023-01-28T11:28:29;5.40;99.90
23721;DHT22;42950;52.134;5.578;2023-01-28T11:30:57;5.40;99.90
23721;DHT22;42950;52.134;5.578;2023-01-28T11:36:18;5.10;99.90
23721;DHT22;42950;52.134;5.578;2023-01-28T11:38:52;5.30;99.90
23721;DHT22;42950;52.134;5.578;2023-01-28T11:41:22;5.40;99.90
23721;DHT22;42950;52.134;5.578;2023-01-28T11:43:49;5.50;99.90
23721;DHT22;42950;52.134;5.578;2023-01-28T11:49:03;5.50;99.90
23721;DHT22;42950;52.134;5.578;2023-01-28T11:54:20;5.50;99.90
23721;DHT22;42950;52.134;5.578;2023-01-28T12:00:11;5.70;99.90
23721;DHT22;42950;52.134;5.578;2023-01-28T12:10:51;5.60;99.90
23721;DHT22;42950;52.134;5.578;2023-01-28T12:13:53;5.70;99.90
23721;DHT22;42950;52.134;5.578;2023-01-28T12:19:13;5.50;99.90
23721;DHT22;42950;52.134;5.578;2023-01-28T12:21:51;5.50;99.90
23721;DHT22;42950;52.134;5.578;2023-01-28T12:27:24;5.70;99.90
23721;DHT22;42950;52.134;5.578;2023-01-28T12:38:24;5.10;99.90
23721;DHT22;42950;52.134;5.578;2023-01-28T12:41:00;5.20;99.90
23721;DHT22;42950;52.134;5.578;2023-01-28T12:49:08;5.40;99.90
23721;DHT22;42950;52.134;5.578;2023-01-28T12:51:48;5.60;99.90
23721;DHT22;42950;52.134;5.578;2023-01-28T12:57:15;5.60;99.90
23721;DHT22;42950;52.134;5.578;2023-01-28T12:59:48;5.70;99.90
23721;DHT22;42950;52.134;5.578;2023-01-28T13:03:08;5.80;99.90
23721;DHT22;42950;52.134;5.578;2023-01-28T13:05:39;6.00;99.90
23721;DHT22;42950;52.134;5.578;2023-01-28T13:08:38;6.10;99.90
23721;DHT22;42950;52.134;5.578;2023-01-28T13:11:05;6.30;99.90
23721;DHT22;42950;52.134;5.578;2023-01-28T13:13:31;6.30;99.90
23721;DHT22;42950;52.134;5.578;2023-01-28T13:15:58;6.40;99.90
23721;DHT22;42950;52.134;5.578;2023-01-28T13:18:45;6.40;99.90
23721;DHT22;42950;52.134;5.578;2023-01-28T13:23:50;6.40;99.90
23721;DHT22;42950;52.134;5.578;2023-01-28T13:28:45;6.30;99.90
23721;DHT22;42950;52.134;5.578;2023-01-28T13:31:13;6.50;99.90
23721;DHT22;42950;52.134;5.578;2023-01-28T13:33:46;6.50;99.90
23721;DHT22;42950;52.134;5.578;2023-01-28T13:36:24;6.50;99.90
23721;DHT22;42950;52.134;5.578;2023-01-28T13:39:03;6.50;99.90
23721;DHT22;42950;52.134;5.578;2023-01-28T13:41:37;6.40;99.90
23721;DHT22;42950;52.134;5.578;2023-01-28T13:44:03;6.30;99.90
23721;DHT22;42950;52.134;5.578;2023-01-28T13:46:29;6.50;99.90
23721;DHT22;42950;52.134;5.578;2023-01-28T13:48:57;6.50;99.90
23721;DHT22;42950;52.134;5.578;2023-01-28T13:51:31;6.40;99.90
23721;DHT22;42950;52.134;5.578;2023-01-28T13:54:05;6.20;99.90
23721;DHT22;42950;52.134;5.578;2023-01-28T13:56:40;6.10;99.90
23721;DHT22;42950;52.134;5.578;2023-01-28T14:02:02;6.10;99.90
23721;DHT22;42950;52.134;5.578;2023-01-28T14:10:12;6.10;99.90
23721;DHT22;42950;52.134;5.578;2023-01-28T14:15:47;6.00;99.90
23721;DHT22;42950;52.134;5.578;2023-01-28T14:18:31;6.00;99.90
23721;DHT22;42950;52.134;5.578;2023-01-28T14:21:01;6.20;99.90
23721;DHT22;42950;52.134;5.578;2023-01-28T14:23:28;6.20;99.90
23721;DHT22;42950;52.134;5.578;2023-01-28T14:26:16;6.20;99.90
23721;DHT22;42950;52.134;5.578;2023-01-28T14:31:32;6.00;99.90
23721;DHT22;42950;52.134;5.578;2023-01-28T14:34:13;5.90;99.90
23721;DHT22;42950;52.134;5.578;2023-01-28T14:36:44;6.10;99.90
23721;DHT22;42950;52.134;5.578;2023-01-28T14:39:18;6.00;99.90
23721;DHT22;42950;52.134;5.578;2023-01-28T14:41:46;6.10;99.90
23721;DHT22;42950;52.134;5.578;2023-01-28T14:49:28;6.60;99.90
23721;DHT22;42950;52.134;5.578;2023-01-28T14:54:59;6.60;99.90
23721;DHT22;42950;52.134;5.578;2023-01-28T14:57:53;6.70;99.90
23721;DHT22;42950;52.134;5.578;2023-01-28T15:00:28;6.70;99.90
23721;DHT22;42950;52.134;5.578;2023-01-28T15:02:55;6.70;99.90
23721;DHT22;42950;52.134;5.578;2023-01-28T15:05:27;6.70;99.90
23721;DHT22;42950;52.134;5.578;2023-01-28T15:07:54;6.50;99.90
23721;DHT22;42950;52.134;5.578;2023-01-28T15:10:30;6.40;99.90
23721;DHT22;42950;52.134;5.578;2023-01-28T15:13:23;6.20;99.90
23721;DHT22;42950;52.134;5.578;2023-01-28T15:15:49;6.20;99.90
23721;DHT22;42950;52.134;5.578;2023-01-28T15:18:18;6.10;99.90
23721;DHT22;42950;52.134;5.578;2023-01-28T15:20:47;6.00;99.90
23721;DHT22;42950;52.134;5.578;2023-01-28T15:23:16;6.00;99.90
23721;DHT22;42950;52.134;5.578;2023-01-28T15:25:43;5.90;99.90
23721;DHT22;42950;52.134;5.578;2023-01-28T15:28:20;5.70;99.90
23721;DHT22;42950;52.134;5.578;2023-01-28T15:30:48;5.60;99.90
23721;DHT22;42950;52.134;5.578;2023-01-28T15:33:15;5.70;99.90
23721;DHT22;42950;52.134;5.578;2023-01-28T15:35:51;5.70;99.90
23721;DHT22;42950;52.134;5.578;2023-01-28T15:38:17;5.60;99.90
23721;DHT22;42950;52.134;5.578;2023-01-28T15:40:47;5.60;99.90
23721;DHT22;42950;52.134;5.578;2023-01-28T15:43:22;5.50;99.90
23721;DHT22;42950;52.134;5.578;2023-01-28T15:45:51;5.40;99.90
23721;DHT22;42950;52.134;5.578;2023-01-28T15:48:20;5.40;99.90
23721;DHT22;42950;52.134;5.578;2023-01-28T15:50:46;5.50;99.90
23721;DHT22;42950;52.134;5.578;2023-01-28T15:53:13;5.50;99.90
23721;DHT22;42950;52.134;5.578;2023-01-28T15:55:41;5.50;99.90
23721;DHT22;42950;52.134;5.578;2023-01-28T15:58:25;5.50;99.90
23721;DHT22;42950;52.134;5.578;2023-01-28T16:01:21;5.40;99.90
23721;DHT22;42950;52.134;5.578;2023-01-28T16:04:02;5.40;99.90
23721;DHT22;42950;52.134;5.578;2023-01-28T16:06:35;5.20;99.90
23721;DHT22;42950;52.134;5.578;2023-01-28T16:09:20;5.10;99.90
23721;DHT22;42950;52.134;5.578;2023-01-28T16:11:46;5.10;99.90
23721;DHT22;42950;52.134;5.578;2023-01-28T16:14:35;5.10;99.90
23721;DHT22;42950;52.134;5.578;2023-01-28T16:17:02;5.20;99.90
23721;DHT22;42950;52.134;5.578;2023-01-28T16:19:36;5.20;99.90
23721;DHT22;42950;52.134;5.578;2023-01-28T16:22:03;5.20;99.90
23721;DHT22;42950;52.134;5.578;2023-01-28T16:24:31;5.20;99.90
23721;DHT22;42950;52.134;5.578;2023-01-28T16:27:18;5.20;99.90
23721;DHT22;42950;52.134;5.578;2023-01-28T16:29:44;5.20;99.90
23721;DHT22;42950;52.134;5.578;2023-01-28T16:32:45;5.20;99.90
23721;DHT22;42950;52.134;5.578;2023-01-28T16:35:15;5.30;99.90
23721;DHT22;42950;52.134;5.578;2023-01-28T16:37:42;5.30;99.90
23721;DHT22;42950;52.134;5.578;2023-01-28T16:40:09;5.30;99.90
23721;DHT22;42950;52.134;5.578;2023-01-28T16:42:35;5.30;99.90
23721;DHT22;42950;52.134;5.578;2023-01-28T16:45:01;5.20;99.90
23721;DHT22;42950;52.134;5.578;2023-01-28T16:47:27;5.10;99.90
23721;DHT22;42950;52.134;5.578;2023-01-28T16:49:53;5.00;99.90
23721;DHT22;42950;52.134;5.578;2023-01-28T16:52:18;5.00;99.90
23721;DHT22;42950;52.134;5.578;2023-01-28T16:54:44;5.00;99.90
23721;DHT22;42950;52.134;5.578;2023-01-28T16:57:13;4.90;99.90
23721;DHT22;42950;52.134;5.578;2023-01-28T16:59:40;5.00;99.90
23721;DHT22;42950;52.134;5.578;2023-01-28T17:02:07;4.90;99.90
23721;DHT22;42950;52.134;5.578;2023-01-28T17:04:33;4.90;99.90
23721;DHT22;42950;52.134;5.578;2023-01-28T17:06:58;4.90;99.90
23721;DHT22;42950;52.134;5.578;2023-01-28T17:09:26;4.80;99.90
23721;DHT22;42950;52.134;5.578;2023-01-28T17:11:51;4.80;99.90
23721;DHT22;42950;52.134;5.578;2023-01-28T17:14:17;4.80;99.90
23721;DHT22;42950;52.134;5.578;2023-01-28T17:16:42;4.80;99.90
23721;DHT22;42950;52.134;5.578;2023-01-28T17:19:08;4.70;99.90
23721;DHT22;42950;52.134;5.578;2023-01-28T17:21:33;4.70;99.90
23721;DHT22;42950;52.134;5.578;2023-01-28T17:24:00;4.60;99.90
23721;DHT22;42950;52.134;5.578;2023-01-28T17:26:26;4.60;99.90
23721;DHT22;42950;52.134;5.578;2023-01-28T17:28:53;4.60;99.90
23721;DHT22;42950;52.134;5.578;2023-01-28T17:31:20;4.60;99.90
23721;DHT22;42950;52.134;5.578;2023-01-28T17:33:46;4.50;99.90
23721;DHT22;42950;52.134;5.578;2023-01-28T17:36:11;4.50;99.90
23721;DHT22;42950;52.134;5.578;2023-01-28T17:38:37;4.60;99.90
23721;DHT22;42950;52.134;5.578;2023-01-28T17:41:05;4.50;99.90
23721;DHT22;42950;52.134;5.578;2023-01-28T17:43:31;4.50;99.90
23721;DHT22;42950;52.134;5.578;2023-01-28T17:45:57;4.50;99.90
23721;DHT22;42950;52.134;5.578;2023-01-28T17:48:22;4.50;99.90
23721;DHT22;42950;52.134;5.578;2023-01-28T17:50:48;4.40;99.90
23721;DHT22;42950;52.134;5.578;2023-01-28T17:53:13;4.50;99.90